sensor_id;sensor_type;location;lat;lon;timestamp;P1;durP1;ratioP1;P2;durP2;ratioP2
15285;SDS011;7744;52.172;10.668;2022-11-11T00:00:28;5.87;;;1.93;;
15285;SDS011;7744;52.172;10.668;2022-11-11T00:02:55;5.93;;;2.00;;
15285;SDS011;7744;52.172;10.668;2022-11-11T00:05:21;4.90;;;2.20;;
15285;SDS011;7744;52.172;10.668;2022-11-11T00:07:47;6.73;;;2.07;;
15285;SDS011;7744;52.172;10.668;2022-11-11T00:10:13;6.47;;;2.23;;
15285;SDS011;7744;52.172;10.668;2022-11-11T00:12:39;5.80;;;1.80;;
15285;SDS011;7744;52.172;10.668;2022-11-11T00:15:05;4.77;;;2.13;;
15285;SDS011;7744;52.172;10.668;2022-11-11T00:17:32;4.87;;;1.50;;
15285;SDS011;7744;52.172;10.668;2022-11-11T00:20:17;5.07;;;1.80;;
15285;SDS011;7744;52.172;10.668;2022-11-11T00:23:02;5.03;;;1.87;;
15285;SDS011;7744;52.172;10.668;2022-11-11T00:25:49;4.13;;;1.73;;
15285;SDS011;7744;52.172;10.668;2022-11-11T00:28:17;5.37;;;1.90;;
15285;SDS011;7744;52.172;10.668;2022-11-11T00:30:42;5.20;;;1.67;;
15285;SDS011;7744;52.172;10.668;2022-11-11T00:33:08;5.13;;;1.93;;
15285;SDS011;7744;52.172;10.668;2022-11-11T00:35:33;3.07;;;1.50;;
15285;SDS011;7744;52.172;10.668;2022-11-11T00:38:17;4.53;;;1.73;;
15285;SDS011;7744;52.172;10.668;2022-11-11T00:41:06;4.13;;;1.53;;
15285;SDS011;7744;52.172;10.668;2022-11-11T00:43:32;4.33;;;1.50;;
15285;SDS011;7744;52.172;10.668;2022-11-11T00:45:58;3.33;;;1.60;;
15285;SDS011;7744;52.172;10.668;2022-11-11T00:48:42;4.57;;;1.87;;
15285;SDS011;7744;52.172;10.668;2022-11-11T00:51:26;3.57;;;1.47;;
15285;SDS011;7744;52.172;10.668;2022-11-11T00:53:52;4.90;;;1.77;;
15285;SDS011;7744;52.172;10.668;2022-11-11T00:56:19;3.30;;;1.50;;
15285;SDS011;7744;52.172;10.668;2022-11-11T00:58:47;4.03;;;1.90;;
15285;SDS011;7744;52.172;10.668;2022-11-11T01:01:12;4.63;;;1.77;;
15285;SDS011;7744;52.172;10.668;2022-11-11T01:03:38;3.30;;;1.70;;
15285;SDS011;7744;52.172;10.668;2022-11-11T01:06:04;5.43;;;1.80;;
15285;SDS011;7744;52.172;10.668;2022-11-11T01:08:30;3.93;;;1.63;;
15285;SDS011;7744;52.172;10.668;2022-11-11T01:10:57;3.43;;;1.53;;
15285;SDS011;7744;52.172;10.668;2022-11-11T01:13:27;4.27;;;1.93;;
15285;SDS011;7744;52.172;10.668;2022-11-11T01:15:59;5.83;;;1.73;;
15285;SDS011;7744;52.172;10.668;2022-11-11T01:18:29;3.93;;;1.60;;
15285;SDS011;7744;52.172;10.668;2022-11-11T01:23:27;5.03;;;1.70;;
15285;SDS011;7744;52.172;10.668;2022-11-11T01:25:53;4.17;;;1.77;;
15285;SDS011;7744;52.172;10.668;2022-11-11T01:28:19;6.00;;;1.87;;
15285;SDS011;7744;52.172;10.668;2022-11-11T01:30:44;3.47;;;1.30;;
15285;SDS011;7744;52.172;10.668;2022-11-11T01:33:10;7.17;;;1.93;;
15285;SDS011;7744;52.172;10.668;2022-11-11T01:35:40;4.10;;;1.90;;
15285;SDS011;7744;52.172;10.668;2022-11-11T01:38:06;4.07;;;1.80;;
15285;SDS011;7744;52.172;10.668;2022-11-11T01:40:40;4.40;;;1.77;;
15285;SDS011;7744;52.172;10.668;2022-11-11T01:48:28;3.47;;;1.50;;
15285;SDS011;7744;52.172;10.668;2022-11-11T01:51:33;4.53;;;1.50;;
15285;SDS011;7744;52.172;10.668;2022-11-11T01:54:10;2.43;;;1.20;;
15285;SDS011;7744;52.172;10.668;2022-11-11T01:56:41;3.60;;;1.80;;
15285;SDS011;7744;52.172;10.668;2022-11-11T01:59:12;3.77;;;1.93;;
15285;SDS011;7744;52.172;10.668;2022-11-11T02:01:41;4.50;;;1.57;;
15285;SDS011;7744;52.172;10.668;2022-11-11T02:04:07;3.80;;;1.30;;
15285;SDS011;7744;52.172;10.668;2022-11-11T02:06:54;3.50;;;1.60;;
15285;SDS011;7744;52.172;10.668;2022-11-11T02:09:22;5.33;;;1.70;;
15285;SDS011;7744;52.172;10.668;2022-11-11T02:11:50;2.30;;;1.50;;
15285;SDS011;7744;52.172;10.668;2022-11-11T02:14:40;3.20;;;1.27;;
15285;SDS011;7744;52.172;10.668;2022-11-11T02:17:09;2.70;;;1.40;;
15285;SDS011;7744;52.172;10.668;2022-11-11T02:22:32;3.60;;;1.80;;
15285;SDS011;7744;52.172;10.668;2022-11-11T02:24:58;4.17;;;1.60;;
15285;SDS011;7744;52.172;10.668;2022-11-11T02:27:27;4.07;;;1.60;;
15285;SDS011;7744;52.172;10.668;2022-11-11T02:29:55;4.43;;;1.30;;
15285;SDS011;7744;52.172;10.668;2022-11-11T02:32:24;3.37;;;1.70;;
15285;SDS011;7744;52.172;10.668;2022-11-11T02:34:49;4.23;;;1.60;;
15285;SDS011;7744;52.172;10.668;2022-11-11T02:37:16;4.83;;;1.93;;
15285;SDS011;7744;52.172;10.668;2022-11-11T02:39:46;5.43;;;1.50;;
15285;SDS011;7744;52.172;10.668;2022-11-11T02:42:13;2.90;;;1.50;;
15285;SDS011;7744;52.172;10.668;2022-11-11T02:44:42;6.63;;;1.60;;
15285;SDS011;7744;52.172;10.668;2022-11-11T02:47:08;2.93;;;1.50;;
15285;SDS011;7744;52.172;10.668;2022-11-11T02:49:33;3.03;;;1.93;;
15285;SDS011;7744;52.172;10.668;2022-11-11T02:51:59;4.57;;;1.73;;
15285;SDS011;7744;52.172;10.668;2022-11-11T02:54:24;3.80;;;1.47;;
15285;SDS011;7744;52.172;10.668;2022-11-11T02:56:50;2.67;;;1.50;;
15285;SDS011;7744;52.172;10.668;2022-11-11T02:59:38;4.63;;;1.20;;
15285;SDS011;7744;52.172;10.668;2022-11-11T03:02:04;2.50;;;1.60;;
15285;SDS011;7744;52.172;10.668;2022-11-11T03:04:31;2.67;;;1.40;;
15285;SDS011;7744;52.172;10.668;2022-11-11T03:06:57;8.20;;;1.63;;
15285;SDS011;7744;52.172;10.668;2022-11-11T03:09:23;3.33;;;1.40;;
15285;SDS011;7744;52.172;10.668;2022-11-11T03:11:49;4.43;;;1.77;;
15285;SDS011;7744;52.172;10.668;2022-11-11T03:14:15;4.47;;;1.50;;
15285;SDS011;7744;52.172;10.668;2022-11-11T03:16:40;4.17;;;1.60;;
15285;SDS011;7744;52.172;10.668;2022-11-11T03:19:24;3.43;;;1.47;;
15285;SDS011;7744;52.172;10.668;2022-11-11T03:21:50;4.07;;;1.60;;
15285;SDS011;7744;52.172;10.668;2022-11-11T03:24:15;4.20;;;1.70;;
15285;SDS011;7744;52.172;10.668;2022-11-11T03:26:41;3.93;;;1.80;;
15285;SDS011;7744;52.172;10.668;2022-11-11T03:29:07;3.77;;;1.63;;
15285;SDS011;7744;52.172;10.668;2022-11-11T03:31:32;2.20;;;1.50;;
15285;SDS011;7744;52.172;10.668;2022-11-11T03:33:58;4.57;;;1.73;;
15285;SDS011;7744;52.172;10.668;2022-11-11T03:36:42;5.10;;;1.83;;
15285;SDS011;7744;52.172;10.668;2022-11-11T03:39:27;4.10;;;1.50;;
15285;SDS011;7744;52.172;10.668;2022-11-11T03:41:53;3.50;;;1.60;;
15285;SDS011;7744;52.172;10.668;2022-11-11T03:44:20;3.20;;;1.50;;
15285;SDS011;7744;52.172;10.668;2022-11-11T03:46:45;6.33;;;1.80;;
15285;SDS011;7744;52.172;10.668;2022-11-11T03:49:11;5.90;;;1.43;;
15285;SDS011;7744;52.172;10.668;2022-11-11T03:51:36;4.30;;;1.73;;
15285;SDS011;7744;52.172;10.668;2022-11-11T03:54:02;4.33;;;1.60;;
15285;SDS011;7744;52.172;10.668;2022-11-11T03:56:28;3.37;;;1.50;;
15285;SDS011;7744;52.172;10.668;2022-11-11T03:58:53;3.17;;;1.20;;
15285;SDS011;7744;52.172;10.668;2022-11-11T04:01:19;4.13;;;1.70;;
15285;SDS011;7744;52.172;10.668;2022-11-11T04:04:03;2.17;;;1.27;;
15285;SDS011;7744;52.172;10.668;2022-11-11T04:06:47;4.80;;;1.77;;
15285;SDS011;7744;52.172;10.668;2022-11-11T04:09:31;2.33;;;1.47;;
15285;SDS011;7744;52.172;10.668;2022-11-11T04:12:15;4.87;;;1.50;;
15285;SDS011;7744;52.172;10.668;2022-11-11T04:14:41;4.27;;;1.63;;
15285;SDS011;7744;52.172;10.668;2022-11-11T04:17:25;4.83;;;1.77;;
15285;SDS011;7744;52.172;10.668;2022-11-11T04:19:51;2.63;;;1.50;;
15285;SDS011;7744;52.172;10.668;2022-11-11T04:22:40;5.00;;;1.70;;
15285;SDS011;7744;52.172;10.668;2022-11-11T04:25:06;2.30;;;1.50;;
15285;SDS011;7744;52.172;10.668;2022-11-11T04:27:50;3.07;;;1.50;;
15285;SDS011;7744;52.172;10.668;2022-11-11T04:30:36;5.50;;;1.70;;
15285;SDS011;7744;52.172;10.668;2022-11-11T04:33:01;3.43;;;1.13;;
15285;SDS011;7744;52.172;10.668;2022-11-11T04:35:27;2.90;;;1.40;;
15285;SDS011;7744;52.172;10.668;2022-11-11T04:37:52;3.67;;;1.63;;
15285;SDS011;7744;52.172;10.668;2022-11-11T04:40:38;2.43;;;1.17;;
15285;SDS011;7744;52.172;10.668;2022-11-11T04:43:22;3.27;;;1.20;;
15285;SDS011;7744;52.172;10.668;2022-11-11T04:45:48;3.60;;;1.23;;
15285;SDS011;7744;52.172;10.668;2022-11-11T04:48:13;3.20;;;1.30;;
15285;SDS011;7744;52.172;10.668;2022-11-11T04:50:42;7.50;;;4.17;;
15285;SDS011;7744;52.172;10.668;2022-11-11T04:53:09;13.20;;;6.90;;
15285;SDS011;7744;52.172;10.668;2022-11-11T04:55:37;8.50;;;3.73;;
15285;SDS011;7744;52.172;10.668;2022-11-11T04:58:23;8.37;;;3.83;;
15285;SDS011;7744;52.172;10.668;2022-11-11T05:00:50;13.50;;;6.73;;
15285;SDS011;7744;52.172;10.668;2022-11-11T05:03:16;15.37;;;8.10;;
15285;SDS011;7744;52.172;10.668;2022-11-11T05:05:45;20.33;;;12.37;;
15285;SDS011;7744;52.172;10.668;2022-11-11T05:08:43;19.50;;;8.80;;
15285;SDS011;7744;52.172;10.668;2022-11-11T05:11:29;18.97;;;9.73;;
15285;SDS011;7744;52.172;10.668;2022-11-11T05:13:57;25.27;;;12.00;;
15285;SDS011;7744;52.172;10.668;2022-11-11T05:16:43;24.30;;;11.97;;
15285;SDS011;7744;52.172;10.668;2022-11-11T05:19:29;26.17;;;11.37;;
15285;SDS011;7744;52.172;10.668;2022-11-11T05:24:47;10.03;;;6.33;;
15285;SDS011;7744;52.172;10.668;2022-11-11T05:27:36;10.73;;;5.00;;
15285;SDS011;7744;52.172;10.668;2022-11-11T05:30:03;11.23;;;6.13;;
15285;SDS011;7744;52.172;10.668;2022-11-11T05:32:29;6.20;;;3.83;;
15285;SDS011;7744;52.172;10.668;2022-11-11T05:34:55;5.30;;;2.80;;
15285;SDS011;7744;52.172;10.668;2022-11-11T05:37:20;4.00;;;2.17;;
15285;SDS011;7744;52.172;10.668;2022-11-11T05:39:46;3.47;;;2.10;;
15285;SDS011;7744;52.172;10.668;2022-11-11T05:42:12;4.30;;;3.20;;
15285;SDS011;7744;52.172;10.668;2022-11-11T05:44:38;7.00;;;3.23;;
15285;SDS011;7744;52.172;10.668;2022-11-11T05:47:03;4.73;;;2.90;;
15285;SDS011;7744;52.172;10.668;2022-11-11T05:49:29;5.87;;;3.30;;
15285;SDS011;7744;52.172;10.668;2022-11-11T05:51:55;6.20;;;3.40;;
15285;SDS011;7744;52.172;10.668;2022-11-11T05:54:21;5.40;;;3.07;;
15285;SDS011;7744;52.172;10.668;2022-11-11T05:56:47;4.83;;;3.70;;
15285;SDS011;7744;52.172;10.668;2022-11-11T05:59:12;6.53;;;3.70;;
15285;SDS011;7744;52.172;10.668;2022-11-11T06:01:38;7.80;;;5.73;;
15285;SDS011;7744;52.172;10.668;2022-11-11T06:04:04;6.20;;;4.87;;
15285;SDS011;7744;52.172;10.668;2022-11-11T06:06:30;5.27;;;3.30;;
15285;SDS011;7744;52.172;10.668;2022-11-11T06:08:56;5.30;;;3.40;;
15285;SDS011;7744;52.172;10.668;2022-11-11T06:11:22;5.97;;;2.93;;
15285;SDS011;7744;52.172;10.668;2022-11-11T06:13:48;2.83;;;2.10;;
15285;SDS011;7744;52.172;10.668;2022-11-11T06:16:14;1.93;;;1.73;;
15285;SDS011;7744;52.172;10.668;2022-11-11T06:18:40;4.97;;;3.20;;
15285;SDS011;7744;52.172;10.668;2022-11-11T06:21:06;4.77;;;3.73;;
15285;SDS011;7744;52.172;10.668;2022-11-11T06:23:31;6.33;;;3.17;;
15285;SDS011;7744;52.172;10.668;2022-11-11T06:25:57;4.33;;;3.03;;
15285;SDS011;7744;52.172;10.668;2022-11-11T06:28:39;4.17;;;2.97;;
15285;SDS011;7744;52.172;10.668;2022-11-11T06:31:04;3.57;;;2.70;;
15285;SDS011;7744;52.172;10.668;2022-11-11T06:33:32;5.53;;;3.00;;
15285;SDS011;7744;52.172;10.668;2022-11-11T06:35:59;5.63;;;2.87;;
15285;SDS011;7744;52.172;10.668;2022-11-11T06:38:25;4.80;;;3.10;;
15285;SDS011;7744;52.172;10.668;2022-11-11T06:40:51;3.93;;;2.40;;
15285;SDS011;7744;52.172;10.668;2022-11-11T06:43:17;3.27;;;2.00;;
15285;SDS011;7744;52.172;10.668;2022-11-11T06:45:43;2.83;;;1.90;;
15285;SDS011;7744;52.172;10.668;2022-11-11T06:48:09;3.93;;;2.20;;
15285;SDS011;7744;52.172;10.668;2022-11-11T06:50:35;2.70;;;2.10;;
15285;SDS011;7744;52.172;10.668;2022-11-11T06:53:12;4.97;;;2.10;;
15285;SDS011;7744;52.172;10.668;2022-11-11T06:55:39;3.87;;;2.00;;
15285;SDS011;7744;52.172;10.668;2022-11-11T06:58:09;3.60;;;2.00;;
15285;SDS011;7744;52.172;10.668;2022-11-11T07:00:36;3.80;;;2.03;;
15285;SDS011;7744;52.172;10.668;2022-11-11T07:03:03;4.73;;;2.00;;
15285;SDS011;7744;52.172;10.668;2022-11-11T07:05:29;3.23;;;1.77;;
15285;SDS011;7744;52.172;10.668;2022-11-11T07:07:56;3.83;;;1.90;;
15285;SDS011;7744;52.172;10.668;2022-11-11T07:10:25;3.57;;;1.70;;
15285;SDS011;7744;52.172;10.668;2022-11-11T07:12:50;4.27;;;1.83;;
15285;SDS011;7744;52.172;10.668;2022-11-11T07:15:16;2.83;;;1.87;;
15285;SDS011;7744;52.172;10.668;2022-11-11T07:17:42;5.17;;;1.83;;
15285;SDS011;7744;52.172;10.668;2022-11-11T07:20:08;4.83;;;2.27;;
15285;SDS011;7744;52.172;10.668;2022-11-11T07:22:34;3.30;;;2.10;;
15285;SDS011;7744;52.172;10.668;2022-11-11T07:25:01;5.00;;;2.10;;
15285;SDS011;7744;52.172;10.668;2022-11-11T07:27:27;3.70;;;1.90;;
15285;SDS011;7744;52.172;10.668;2022-11-11T07:29:52;3.00;;;2.30;;
15285;SDS011;7744;52.172;10.668;2022-11-11T07:32:18;5.73;;;3.23;;
15285;SDS011;7744;52.172;10.668;2022-11-11T07:34:43;13.00;;;6.67;;
15285;SDS011;7744;52.172;10.668;2022-11-11T07:37:09;9.80;;;5.40;;
15285;SDS011;7744;52.172;10.668;2022-11-11T07:39:35;12.13;;;6.37;;
15285;SDS011;7744;52.172;10.668;2022-11-11T07:42:00;5.30;;;2.50;;
15285;SDS011;7744;52.172;10.668;2022-11-11T07:44:26;5.30;;;3.47;;
15285;SDS011;7744;52.172;10.668;2022-11-11T07:46:52;8.57;;;4.23;;
15285;SDS011;7744;52.172;10.668;2022-11-11T07:49:17;8.20;;;3.90;;
15285;SDS011;7744;52.172;10.668;2022-11-11T07:51:43;8.50;;;5.37;;
15285;SDS011;7744;52.172;10.668;2022-11-11T07:54:08;8.60;;;5.50;;
15285;SDS011;7744;52.172;10.668;2022-11-11T07:56:34;8.97;;;4.90;;
15285;SDS011;7744;52.172;10.668;2022-11-11T07:59:00;9.03;;;4.17;;
15285;SDS011;7744;52.172;10.668;2022-11-11T08:01:25;3.80;;;2.47;;
15285;SDS011;7744;52.172;10.668;2022-11-11T08:03:51;4.47;;;3.00;;
15285;SDS011;7744;52.172;10.668;2022-11-11T08:06:17;6.90;;;4.50;;
15285;SDS011;7744;52.172;10.668;2022-11-11T08:08:43;8.70;;;5.53;;
15285;SDS011;7744;52.172;10.668;2022-11-11T08:11:09;7.43;;;4.50;;
15285;SDS011;7744;52.172;10.668;2022-11-11T08:13:35;8.17;;;4.80;;
15285;SDS011;7744;52.172;10.668;2022-11-11T08:16:11;4.97;;;3.53;;
15285;SDS011;7744;52.172;10.668;2022-11-11T08:18:39;8.40;;;4.17;;
15285;SDS011;7744;52.172;10.668;2022-11-11T08:21:05;4.30;;;3.20;;
15285;SDS011;7744;52.172;10.668;2022-11-11T08:23:31;5.70;;;3.37;;
15285;SDS011;7744;52.172;10.668;2022-11-11T08:26:01;4.43;;;2.60;;
15285;SDS011;7744;52.172;10.668;2022-11-11T08:28:29;6.33;;;3.40;;
15285;SDS011;7744;52.172;10.668;2022-11-11T08:30:57;9.13;;;5.13;;
15285;SDS011;7744;52.172;10.668;2022-11-11T08:33:23;8.03;;;3.27;;
15285;SDS011;7744;52.172;10.668;2022-11-11T08:35:50;4.73;;;2.40;;
15285;SDS011;7744;52.172;10.668;2022-11-11T08:38:18;3.87;;;1.90;;
15285;SDS011;7744;52.172;10.668;2022-11-11T08:40:50;3.63;;;1.90;;
15285;SDS011;7744;52.172;10.668;2022-11-11T08:43:16;3.30;;;1.60;;
15285;SDS011;7744;52.172;10.668;2022-11-11T08:45:42;2.73;;;1.77;;
15285;SDS011;7744;52.172;10.668;2022-11-11T08:48:08;5.23;;;1.73;;
15285;SDS011;7744;52.172;10.668;2022-11-11T08:50:37;2.40;;;1.67;;
15285;SDS011;7744;52.172;10.668;2022-11-11T08:53:07;3.00;;;1.80;;
15285;SDS011;7744;52.172;10.668;2022-11-11T08:55:34;2.80;;;1.70;;
15285;SDS011;7744;52.172;10.668;2022-11-11T08:58:01;3.40;;;1.90;;
15285;SDS011;7744;52.172;10.668;2022-11-11T09:00:30;2.37;;;1.53;;
15285;SDS011;7744;52.172;10.668;2022-11-11T09:02:59;2.67;;;1.70;;
15285;SDS011;7744;52.172;10.668;2022-11-11T09:05:29;2.83;;;1.80;;
15285;SDS011;7744;52.172;10.668;2022-11-11T09:07:54;3.13;;;2.10;;
15285;SDS011;7744;52.172;10.668;2022-11-11T09:10:20;1.53;;;1.27;;
15285;SDS011;7744;52.172;10.668;2022-11-11T09:12:46;2.25;;;1.10;;
15285;SDS011;7744;52.172;10.668;2022-11-11T09:15:12;3.28;;;1.40;;
15285;SDS011;7744;52.172;10.668;2022-11-11T09:17:37;1.58;;;1.40;;
15285;SDS011;7744;52.172;10.668;2022-11-11T09:20:03;2.15;;;1.10;;
15285;SDS011;7744;52.172;10.668;2022-11-11T09:22:29;4.18;;;1.23;;
15285;SDS011;7744;52.172;10.668;2022-11-11T09:24:54;1.80;;;0.98;;
15285;SDS011;7744;52.172;10.668;2022-11-11T09:27:20;1.00;;;0.80;;
15285;SDS011;7744;52.172;10.668;2022-11-11T09:29:46;1.80;;;0.80;;
15285;SDS011;7744;52.172;10.668;2022-11-11T09:32:12;2.53;;;1.13;;
15285;SDS011;7744;52.172;10.668;2022-11-11T09:34:38;2.35;;;1.00;;
15285;SDS011;7744;52.172;10.668;2022-11-11T09:37:03;3.30;;;0.95;;
15285;SDS011;7744;52.172;10.668;2022-11-11T09:39:29;2.75;;;1.00;;
15285;SDS011;7744;52.172;10.668;2022-11-11T09:42:13;2.65;;;1.00;;
15285;SDS011;7744;52.172;10.668;2022-11-11T09:47:45;1.23;;;1.00;;
15285;SDS011;7744;52.172;10.668;2022-11-11T09:50:22;1.98;;;0.88;;
15285;SDS011;7744;52.172;10.668;2022-11-11T09:52:53;2.20;;;1.05;;
15285;SDS011;7744;52.172;10.668;2022-11-11T09:57:55;1.55;;;1.02;;
15285;SDS011;7744;52.172;10.668;2022-11-11T10:00:28;2.60;;;0.90;;
15285;SDS011;7744;52.172;10.668;2022-11-11T10:05:40;2.25;;;1.17;;
15285;SDS011;7744;52.172;10.668;2022-11-11T10:13:12;3.08;;;1.42;;
15285;SDS011;7744;52.172;10.668;2022-11-11T10:15:44;0.95;;;0.85;;
15285;SDS011;7744;52.172;10.668;2022-11-11T10:18:26;1.35;;;0.93;;
15285;SDS011;7744;52.172;10.668;2022-11-11T10:21:14;2.50;;;1.30;;
15285;SDS011;7744;52.172;10.668;2022-11-11T10:23:45;2.03;;;1.13;;
15285;SDS011;7744;52.172;10.668;2022-11-11T10:26:20;3.55;;;1.77;;
15285;SDS011;7744;52.172;10.668;2022-11-11T10:28:53;2.78;;;1.20;;
15285;SDS011;7744;52.172;10.668;2022-11-11T10:31:20;1.73;;;1.05;;
15285;SDS011;7744;52.172;10.668;2022-11-11T10:36:47;3.30;;;1.10;;
15285;SDS011;7744;52.172;10.668;2022-11-11T10:42:14;1.67;;;1.20;;
15285;SDS011;7744;52.172;10.668;2022-11-11T10:44:41;1.77;;;1.20;;
15285;SDS011;7744;52.172;10.668;2022-11-11T10:50:20;3.20;;;1.00;;
15285;SDS011;7744;52.172;10.668;2022-11-11T10:53:06;2.88;;;1.00;;
15285;SDS011;7744;52.172;10.668;2022-11-11T10:55:53;1.98;;;1.30;;
15285;SDS011;7744;52.172;10.668;2022-11-11T10:58:34;2.03;;;1.38;;
15285;SDS011;7744;52.172;10.668;2022-11-11T11:01:06;2.22;;;1.23;;
15285;SDS011;7744;52.172;10.668;2022-11-11T11:03:49;2.05;;;1.38;;
15285;SDS011;7744;52.172;10.668;2022-11-11T11:06:29;3.00;;;1.17;;
15285;SDS011;7744;52.172;10.668;2022-11-11T11:09:05;1.30;;;1.08;;
15285;SDS011;7744;52.172;10.668;2022-11-11T11:11:46;1.77;;;1.23;;
15285;SDS011;7744;52.172;10.668;2022-11-11T11:14:15;2.63;;;1.20;;
15285;SDS011;7744;52.172;10.668;2022-11-11T11:16:49;1.48;;;1.17;;
15285;SDS011;7744;52.172;10.668;2022-11-11T11:19:26;1.98;;;1.15;;
15285;SDS011;7744;52.172;10.668;2022-11-11T11:21:56;1.50;;;1.10;;
15285;SDS011;7744;52.172;10.668;2022-11-11T11:24:35;2.03;;;1.27;;
15285;SDS011;7744;52.172;10.668;2022-11-11T11:27:02;5.05;;;2.58;;
15285;SDS011;7744;52.172;10.668;2022-11-11T11:29:32;5.65;;;4.40;;
15285;SDS011;7744;52.172;10.668;2022-11-11T11:34:54;6.07;;;4.30;;
15285;SDS011;7744;52.172;10.668;2022-11-11T11:37:21;6.78;;;4.80;;
15285;SDS011;7744;52.172;10.668;2022-11-11T11:39:58;6.43;;;4.15;;
15285;SDS011;7744;52.172;10.668;2022-11-11T11:42:34;16.20;;;8.23;;
15285;SDS011;7744;52.172;10.668;2022-11-11T11:45:15;8.43;;;5.28;;
15285;SDS011;7744;52.172;10.668;2022-11-11T11:55:54;9.32;;;5.47;;
15285;SDS011;7744;52.172;10.668;2022-11-11T11:58:35;4.63;;;3.67;;
15285;SDS011;7744;52.172;10.668;2022-11-11T12:01:20;2.88;;;1.60;;
15285;SDS011;7744;52.172;10.668;2022-11-11T12:04:54;2.60;;;1.95;;
15285;SDS011;7744;52.172;10.668;2022-11-11T12:20:54;3.55;;;1.52;;
15285;SDS011;7744;52.172;10.668;2022-11-11T12:23:57;1.83;;;1.40;;
15285;SDS011;7744;52.172;10.668;2022-11-11T12:30:07;1.52;;;1.30;;
15285;SDS011;7744;52.172;10.668;2022-11-11T12:45:48;2.58;;;1.20;;
15285;SDS011;7744;52.172;10.668;2022-11-11T12:53:39;4.30;;;1.33;;
15285;SDS011;7744;52.172;10.668;2022-11-11T13:04:44;1.10;;;0.90;;
15285;SDS011;7744;52.172;10.668;2022-11-11T13:07:27;1.98;;;1.10;;
15285;SDS011;7744;52.172;10.668;2022-11-11T13:15:11;1.20;;;1.10;;
15285;SDS011;7744;52.172;10.668;2022-11-11T13:17:45;2.13;;;1.35;;
15285;SDS011;7744;52.172;10.668;2022-11-11T13:22:51;1.50;;;0.98;;
15285;SDS011;7744;52.172;10.668;2022-11-11T13:25:21;1.52;;;1.02;;
15285;SDS011;7744;52.172;10.668;2022-11-11T13:27:50;1.48;;;1.02;;
15285;SDS011;7744;52.172;10.668;2022-11-11T13:33:09;2.00;;;0.90;;
15285;SDS011;7744;52.172;10.668;2022-11-11T13:35:42;2.05;;;1.00;;
15285;SDS011;7744;52.172;10.668;2022-11-11T13:38:24;2.53;;;1.10;;
15285;SDS011;7744;52.172;10.668;2022-11-11T13:41:11;2.03;;;1.02;;
15285;SDS011;7744;52.172;10.668;2022-11-11T13:43:45;1.83;;;0.90;;
15285;SDS011;7744;52.172;10.668;2022-11-11T13:46:33;2.65;;;1.10;;
15285;SDS011;7744;52.172;10.668;2022-11-11T13:49:02;1.60;;;1.48;;
15285;SDS011;7744;52.172;10.668;2022-11-11T13:51:36;2.88;;;1.13;;
15285;SDS011;7744;52.172;10.668;2022-11-11T13:56:51;2.33;;;1.30;;
15285;SDS011;7744;52.172;10.668;2022-11-11T13:59:22;1.77;;;0.90;;
15285;SDS011;7744;52.172;10.668;2022-11-11T14:18:00;1.10;;;0.98;;
15285;SDS011;7744;52.172;10.668;2022-11-11T14:20:44;1.85;;;1.40;;
15285;SDS011;7744;52.172;10.668;2022-11-11T14:26:00;1.77;;;1.20;;
15285;SDS011;7744;52.172;10.668;2022-11-11T14:33:46;2.33;;;1.83;;
15285;SDS011;7744;52.172;10.668;2022-11-11T14:36:26;1.30;;;1.20;;
15285;SDS011;7744;52.172;10.668;2022-11-11T14:49:45;1.95;;;1.45;;
15285;SDS011;7744;52.172;10.668;2022-11-11T14:57:37;3.72;;;1.30;;
15285;SDS011;7744;52.172;10.668;2022-11-11T15:00:21;1.55;;;1.17;;
15285;SDS011;7744;52.172;10.668;2022-11-11T15:02:53;4.10;;;1.20;;
15285;SDS011;7744;52.172;10.668;2022-11-11T15:05:30;1.98;;;1.40;;
15285;SDS011;7744;52.172;10.668;2022-11-11T15:22:12;6.78;;;5.13;;
15285;SDS011;7744;52.172;10.668;2022-11-11T15:30:20;4.43;;;2.47;;
15285;SDS011;7744;52.172;10.668;2022-11-11T15:33:01;2.35;;;1.70;;
15285;SDS011;7744;52.172;10.668;2022-11-11T15:35:51;2.30;;;1.95;;
15285;SDS011;7744;52.172;10.668;2022-11-11T15:38:23;3.10;;;2.00;;
15285;SDS011;7744;52.172;10.668;2022-11-11T15:40:50;2.90;;;1.80;;
15285;SDS011;7744;52.172;10.668;2022-11-11T15:43:22;5.07;;;3.30;;
15285;SDS011;7744;52.172;10.668;2022-11-11T15:45:56;3.67;;;2.60;;
15285;SDS011;7744;52.172;10.668;2022-11-11T15:48:25;5.30;;;4.60;;
15285;SDS011;7744;52.172;10.668;2022-11-11T15:50:54;3.83;;;3.40;;
15285;SDS011;7744;52.172;10.668;2022-11-11T15:53:21;4.50;;;3.50;;
15285;SDS011;7744;52.172;10.668;2022-11-11T15:55:52;3.58;;;2.47;;
15285;SDS011;7744;52.172;10.668;2022-11-11T15:58:29;2.75;;;2.50;;
15285;SDS011;7744;52.172;10.668;2022-11-11T16:00:56;4.23;;;1.70;;
15285;SDS011;7744;52.172;10.668;2022-11-11T16:03:32;2.05;;;1.10;;
15285;SDS011;7744;52.172;10.668;2022-11-11T16:06:04;2.07;;;1.50;;
15285;SDS011;7744;52.172;10.668;2022-11-11T16:08:34;3.10;;;1.70;;
15285;SDS011;7744;52.172;10.668;2022-11-11T16:11:00;5.13;;;4.73;;
15285;SDS011;7744;52.172;10.668;2022-11-11T16:13:39;14.40;;;13.10;;
15285;SDS011;7744;52.172;10.668;2022-11-11T16:16:12;9.30;;;8.43;;
15285;SDS011;7744;52.172;10.668;2022-11-11T16:18:48;16.20;;;14.47;;
15285;SDS011;7744;52.172;10.668;2022-11-11T16:21:22;8.77;;;7.97;;
15285;SDS011;7744;52.172;10.668;2022-11-11T16:23:51;6.90;;;5.90;;
15285;SDS011;7744;52.172;10.668;2022-11-11T16:26:17;21.33;;;14.83;;
15285;SDS011;7744;52.172;10.668;2022-11-11T16:28:46;8.00;;;7.23;;
15285;SDS011;7744;52.172;10.668;2022-11-11T16:31:19;8.83;;;6.40;;
15285;SDS011;7744;52.172;10.668;2022-11-11T16:33:45;7.10;;;5.90;;
15285;SDS011;7744;52.172;10.668;2022-11-11T16:36:10;5.77;;;4.80;;
15285;SDS011;7744;52.172;10.668;2022-11-11T16:38:37;5.47;;;4.57;;
15285;SDS011;7744;52.172;10.668;2022-11-11T16:41:03;5.90;;;3.77;;
15285;SDS011;7744;52.172;10.668;2022-11-11T16:43:30;6.13;;;4.30;;
15285;SDS011;7744;52.172;10.668;2022-11-11T16:50:57;7.37;;;5.10;;
15285;SDS011;7744;52.172;10.668;2022-11-11T16:53:35;7.37;;;5.03;;
15285;SDS011;7744;52.172;10.668;2022-11-11T16:56:04;8.57;;;5.57;;
15285;SDS011;7744;52.172;10.668;2022-11-11T16:58:31;8.07;;;5.83;;
15285;SDS011;7744;52.172;10.668;2022-11-11T17:01:04;25.53;;;21.23;;
15285;SDS011;7744;52.172;10.668;2022-11-11T17:03:31;10.47;;;8.93;;
15285;SDS011;7744;52.172;10.668;2022-11-11T17:06:00;12.80;;;11.70;;
15285;SDS011;7744;52.172;10.668;2022-11-11T17:08:42;9.60;;;8.60;;
15285;SDS011;7744;52.172;10.668;2022-11-11T17:14:02;9.17;;;8.47;;
15285;SDS011;7744;52.172;10.668;2022-11-11T17:16:28;27.87;;;26.03;;
15285;SDS011;7744;52.172;10.668;2022-11-11T17:18:53;21.73;;;20.27;;
15285;SDS011;7744;52.172;10.668;2022-11-11T17:21:19;16.93;;;15.63;;
15285;SDS011;7744;52.172;10.668;2022-11-11T17:23:45;6.67;;;5.87;;
15285;SDS011;7744;52.172;10.668;2022-11-11T17:26:10;5.97;;;5.40;;
15285;SDS011;7744;52.172;10.668;2022-11-11T17:28:36;4.63;;;4.17;;
15285;SDS011;7744;52.172;10.668;2022-11-11T17:31:02;4.90;;;4.50;;
15285;SDS011;7744;52.172;10.668;2022-11-11T17:33:32;4.60;;;4.07;;
15285;SDS011;7744;52.172;10.668;2022-11-11T17:35:58;5.90;;;4.27;;
15285;SDS011;7744;52.172;10.668;2022-11-11T17:38:25;7.10;;;6.43;;
15285;SDS011;7744;52.172;10.668;2022-11-11T17:40:51;4.30;;;3.80;;
15285;SDS011;7744;52.172;10.668;2022-11-11T17:43:17;3.80;;;3.43;;
15285;SDS011;7744;52.172;10.668;2022-11-11T17:45:43;4.77;;;3.80;;
15285;SDS011;7744;52.172;10.668;2022-11-11T17:48:09;4.57;;;3.83;;
15285;SDS011;7744;52.172;10.668;2022-11-11T17:50:35;4.60;;;3.87;;
15285;SDS011;7744;52.172;10.668;2022-11-11T17:53:03;3.47;;;3.10;;
15285;SDS011;7744;52.172;10.668;2022-11-11T17:55:30;3.50;;;3.00;;
15285;SDS011;7744;52.172;10.668;2022-11-11T17:57:57;5.30;;;4.63;;